Welcome to our new website - Welkom op onze vernieuwde website - Bienvenue sur notre nouveau site web - Willkommen auf unserer neuen Website

Lokaal brand risico:
CBI


Regionaal brand risico: Meer informatie


Weerstation
Sluispark-LeuvenLeuven-Sluispark



Het weer levert geen direct gevaar op.    Er zijn geen waarschuwingen afgegeven.

Nabijgelegen vliegvelden - METAR rapporten

   
EBBR - Wilsele bij Leuven
Gewijzigd: 21-08-2018 01:50
Gedeeltelijk bewolkt    Wind: NNW 1.9 km/h
Gedeeltelijk bewolkt
Wind: Wind: NNW 1.9 km/h
Temperatuur: 19°C
Dauwpunt: 14°C
Vochtigheid: 73%
Barometer: 1021 hPa
Bewolking: Gedeeltelijk bewolkt
Zicht: meer dan 10 km
Bewolking: Gedeeltelijk bewolkt 1219.2 m
EBBR 202350Z 34001KT 9999 SCT040 19/14 Q1021 NOSIG
EBAW - Antwerp
Gewijzigd: 21-08-2018 01:50
Helder    Wind: Zuiden 1.9 km/h
Helder
Wind: Wind: Zuiden 1.9 km/h
Temperatuur: 18°C
Dauwpunt: 17°C
Vochtigheid: 94%
Barometer: 1021 hPa
Zicht: meer dan 10 km
Bewolking: Helder
EBAW 202350Z AUTO 18001KT CAVOK 18/17 Q1021
EBLG - Li├Ęge
Gewijzigd: 21-08-2018 01:50
Grotendeels bewolkt    Wind: NNO 5.6 km/h
Grotendeels bewolkt
Wind: Wind: NNO 5.6 km/h
Temperatuur: 19°C
Dauwpunt: 16°C
Vochtigheid: 83%
Barometer: 1021 hPa
Bewolking: Grotendeels bewolkt
Zicht: meer dan 10 km
Bewolking: Grotendeels bewolkt 853.4 m
EBLG 202350Z 02003KT 9999 BKN028 19/16 Q1021 NOSIG
EBCV - Mons/Bergen
Gewijzigd: 21-08-2018 02:08
Grotendeels bewolkt    Wind: varieert 1.9 km/h
Grotendeels bewolkt
Wind: Wind: varieert 1.9 km/h
Temperatuur: 18°C
Dauwpunt: 17°C
Vochtigheid: 94%
Barometer: 1021 hPa
Bewolking: Grotendeels bewolkt
Zicht: 7 km
Bewolking: Licht bewolkt 883.9 m,
Grotendeels bewolkt 1889.8 m
EBCV 210008Z AUTO VRB01KT 7000 FEW029/// BKN062/// 18/17 Q1021 WHT
EHBK - Maastricht
Gewijzigd: 21-08-2018 01:55
Bewolking    Wind: WNW 1.9 km/h
Bewolking
Wind: Wind: WNW 1.9 km/h
Temperatuur: 20°C
Dauwpunt: 17°C
Vochtigheid: 83%
Barometer: 1021 hPa
Bewolking: Bewolking
Zicht: meer dan 10 km
Bewolking: Gedeeltelijk bewolkt 823 m,
Bewolking 1127.8 m
EHBK 202355Z AUTO 29001KT 9999 SCT027 OVC037 20/17 Q1021
ELLX - Luxemburg
Gewijzigd: 21-08-2018 01:50
Gedeeltelijk bewolkt    Wind: Noorden 7.4 km/h
Gedeeltelijk bewolkt
Wind: Wind: Noorden 7.4 km/h
Temperatuur: 19°C
Dauwpunt: 16°C
Vochtigheid: 83%
Barometer: 1021 hPa
Bewolking: Gedeeltelijk bewolkt
Zicht: meer dan 10 km
Bewolking: Gedeeltelijk bewolkt 1615.4 m
ELLX 202350Z AUTO 01004KT 9999 SCT053/// 19/16 Q1021 NOSIG
EBOS - Oostende
Gewijzigd: 21-08-2018 01:50
Grotendeels bewolkt    Wind: ZZO 7.4 km/h
Grotendeels bewolkt
Wind: Wind: ZZO 7.4 km/h
Temperatuur: 16°C
Dauwpunt: 14°C
Vochtigheid: 88%
Barometer: 1021 hPa
Bewolking: Grotendeels bewolkt
Zicht: 9 km
Bewolking: Grotendeels bewolkt 1463 m
EBOS 202350Z 15004KT 9000 BKN048 16/14 Q1021 NOSIG
  

Script ontwikkeld door  Saratoga-weather.org Aangepast voor de template door  Weerstation Leuven

U vindt ons ook hier:

UK Metoffice

WeatherCloud

European Weather Network

Weather Underground

Benelux Weather Network

AWEKAS

WeatherlinkIP

Het Weer Aktueel

Apparatuur in gebruik:

Weer-station
Davis VP2 weatherstation

Weer-programma
Meteobridge

Weer-computer
D-Link DIR-505

Webleverancier
Robohost

Davis VP2 weatherstation

Meteobridge

D-Link DIR-505

Robohost